Time;durP1;ratioP1;P1;durP2;ratioP2;P2;SDS_P1;SDS_P2;PMS_P1;PMS_P2;Temp;Humidity;BMP_temperature;BMP_pressure;BME280_temperature;BME280_humidity;BME280_pressure;Samples;Min_cycle;Max_cycle;Signal;HPM_P1;HPM_P2
2022/09/20 00:02:20;;;;;;;2.53;0.83;;;;;;;14.84;100.00;149767.13;5072337;28;20189;-59
2022/09/20 00:04:48;;;;;;;1.10;0.90;;;;;;;14.82;100.00;149763.31;5072419;28;20551;-60
2022/09/20 00:07:17;;;;;;;1.33;1.23;;;;;;;14.52;100.00;149687.22;5072299;28;20286;-59
2022/09/20 00:09:43;;;;;;;2.27;0.93;;;;;;;14.89;100.00;149779.81;5071976;28;20279;-59
2022/09/20 00:12:10;;;;;;;1.30;1.13;;;;;;;14.90;100.00;149783.59;5071919;28;20185;-59
2022/09/20 00:14:37;;;;;;;1.43;1.17;;;;;;;14.96;100.00;149797.56;5071944;28;20195;-60
2022/09/20 00:17:04;;;;;;;1.20;1.10;;;;;;;14.93;100.00;149791.22;5071975;28;20181;-59
2022/09/20 00:19:31;;;;;;;1.10;1.00;;;;;;;14.84;100.00;149767.13;5071836;28;20228;-59
2022/09/20 00:21:58;;;;;;;4.83;1.20;;;;;;;14.90;100.00;149783.59;5072285;28;20188;-59
2022/09/20 00:24:27;;;;;;;2.83;1.33;;;;;;;15.02;100.00;149814.03;5072124;28;20279;-59
2022/09/20 00:26:54;;;;;;;1.10;1.00;;;;;;;14.74;100.00;149743.00;5071686;28;20265;-59
2022/09/20 00:29:21;;;;;;;2.20;0.90;;;;;;;15.02;100.00;149812.81;5072059;28;20268;-59
2022/09/20 00:31:48;;;;;;;2.43;1.00;;;;;;;15.02;100.00;149812.81;5072227;28;20571;-59
2022/09/20 00:36:59;;;;;;;5.70;1.10;;;;;;;15.01;100.00;149810.25;5071236;28;20602;-59
2022/09/20 00:39:27;;;;;;;2.83;0.90;;;;;;;15.03;100.00;149816.56;5071890;28;20655;-58
2022/09/20 00:41:54;;;;;;;9.10;1.33;;;;;;;15.04;100.00;149817.84;5072141;28;20185;-59
2022/09/20 00:44:41;;;;;;;1.87;0.80;;;;;;;15.01;100.00;149811.53;5071929;28;20189;-60
2022/09/20 00:47:16;;;;;;;1.80;0.80;;;;;;;14.99;100.00;149806.44;5071470;28;20361;-59
2022/09/20 00:49:43;;;;;;;1.73;1.20;;;;;;;14.95;100.00;149796.28;5071537;28;20189;-59
2022/09/20 00:52:10;;;;;;;5.60;1.10;;;;;;;14.95;100.00;149795.00;5071528;28;20188;-59
2022/09/20 00:54:39;;;;;;;2.60;0.77;;;;;;;14.94;100.00;149793.75;5071383;28;20199;-59
2022/09/20 00:57:06;;;;;;;1.57;0.90;;;;;;;14.95;100.00;149796.28;5071821;28;20547;-60
2022/09/20 00:59:37;;;;;;;1.10;1.00;;;;;;;14.85;100.00;149770.91;5071316;28;20677;-60
2022/09/20 01:02:09;;;;;;;1.03;1.03;;;;;;;14.85;100.00;149770.91;5071385;28;20177;-59
2022/09/20 01:04:39;;;;;;;1.40;0.80;;;;;;;14.86;100.00;149773.44;5071770;28;20604;-59
2022/09/20 01:07:09;;;;;;;0.73;0.73;;;;;;;14.83;100.00;149764.56;5071592;28;20713;-60
2022/09/20 01:09:36;;;;;;;1.60;0.80;;;;;;;14.81;100.00;149759.53;5071534;28;20552;-59
2022/09/20 01:12:09;;;;;;;0.77;0.77;;;;;;;14.77;100.00;149750.63;5071539;28;20227;-59
2022/09/20 01:14:36;;;;;;;1.50;0.67;;;;;;;14.74;100.00;149741.75;5071467;28;20201;-59
2022/09/20 01:17:06;;;;;;;4.47;0.80;;;;;;;14.63;100.00;149716.41;5071287;28;20189;-58
2022/09/20 01:19:40;;;;;;;1.50;0.70;;;;;;;14.70;100.00;149731.59;5071043;28;20224;-60
2022/09/20 01:22:16;;;;;;;1.03;0.60;;;;;;;14.65;100.00;149720.19;5071448;28;20192;-59
2022/09/20 01:24:49;;;;;;;0.90;0.90;;;;;;;14.67;100.00;149724.00;5071465;28;20550;-60
2022/09/20 01:27:26;;;;;;;3.17;0.90;;;;;;;14.75;100.00;149745.56;5071063;28;20209;-58
2022/09/20 01:30:05;;;;;;;2.83;0.77;;;;;;;14.69;100.00;149730.31;5071394;28;20635;-59
2022/09/20 01:32:42;;;;;;;1.87;0.70;;;;;;;14.73;100.00;149740.47;5071356;28;20184;-59
2022/09/20 01:35:11;;;;;;;2.53;0.70;;;;;;;14.78;100.00;149753.16;5071312;28;20219;-58
2022/09/20 01:37:50;;;;;;;2.40;0.70;;;;;;;14.77;100.00;149749.34;5070993;28;20181;-60
2022/09/20 01:40:26;;;;;;;0.60;0.60;;;;;;;14.77;100.00;149750.63;5069902;28;20188;-59
2022/09/20 01:43:01;;;;;;;0.80;0.57;;;;;;;14.70;100.00;149732.88;5069684;28;20184;-60
2022/09/20 01:45:31;;;;;;;0.67;0.67;;;;;;;14.71;100.00;149735.44;5071308;28;20657;-59
2022/09/20 01:48:08;;;;;;;2.67;0.70;;;;;;;14.76;100.00;149748.13;5071496;28;20227;-59
2022/09/20 01:50:48;;;;;;;1.00;0.97;;;;;;;14.79;100.00;149755.72;5074611;28;20225;-60
2022/09/20 01:53:39;;;;;;;1.83;0.90;;;;;;;14.83;100.00;149764.56;5074560;28;20185;-60
2022/09/20 01:56:30;;;;;;;1.63;0.53;;;;;;;14.91;100.00;149786.13;5074530;28;20206;-59
2022/09/20 01:59:30;;;;;;;0.70;0.70;;;;;;;14.89;100.00;149779.81;5074848;28;20189;-60
2022/09/20 02:02:23;;;;;;;0.60;0.60;;;;;;;14.95;100.00;149795.00;5074803;28;20189;-59
2022/09/20 02:05:21;;;;;;;0.93;0.70;;;;;;;14.88;100.00;149778.53;5071949;28;20196;-59
2022/09/20 02:08:04;;;;;;;0.63;0.63;;;;;;;14.90;100.00;149783.59;5074222;28;20200;-59
2022/09/20 02:10:47;;;;;;;0.60;0.60;;;;;;;14.95;100.00;149795.00;5074530;28;20183;-59
2022/09/20 02:13:27;;;;;;;2.17;0.47;;;;;;;14.95;100.00;149796.28;5074187;28;20193;-59
2022/09/20 02:16:30;;;;;;;0.57;0.57;;;;;;;14.85;100.00;149770.91;5074151;28;20188;-59
2022/09/20 02:19:32;;;;;;;0.50;0.50;;;;;;;14.67;100.00;149724.00;5074093;28;20232;-59
2022/09/20 02:22:15;;;;;;;0.70;0.63;;;;;;;14.87;100.00;149774.72;5074382;28;20646;-59
2022/09/20 02:24:50;;;;;;;0.60;0.60;;;;;;;14.74;100.00;149743.00;5074043;28;20184;-59
2022/09/20 02:27:24;;;;;;;0.67;0.67;;;;;;;14.94;100.00;149793.75;5073995;28;20204;-59
2022/09/20 02:30:03;;;;;;;0.70;0.53;;;;;;;14.97;100.00;149800.09;5073969;28;20189;-60
2022/09/20 02:32:49;;;;;;;2.83;0.70;;;;;;;15.01;100.00;149810.25;5073987;28;20188;-59
2022/09/20 02:35:32;;;;;;;1.73;0.60;;;;;;;15.03;100.00;149815.31;5073874;28;20272;-60
2022/09/20 02:38:10;;;;;;;0.93;0.57;;;;;;;15.06;100.00;149824.19;5073780;28;20189;-60
2022/09/20 02:41:22;;;;;;;2.57;0.50;;;;;;;14.99;100.00;149806.44;5074059;28;20347;-59
2022/09/20 02:43:56;;;;;;;0.60;0.60;;;;;;;15.05;100.00;149820.41;5073867;28;20272;-58
2022/09/20 02:46:32;;;;;;;4.73;0.80;;;;;;;14.92;100.00;149787.41;5073478;28;20184;-59
2022/09/20 02:49:08;;;;;;;1.97;0.80;;;;;;;14.94;100.00;149792.47;5073658;28;20180;-60
2022/09/20 02:51:40;;;;;;;0.67;0.67;;;;;;;14.99;100.00;149805.16;5073586;28;20184;-60
2022/09/20 02:54:18;;;;;;;0.70;0.70;;;;;;;14.90;100.00;149783.59;5073515;28;20238;-60
2022/09/20 02:56:51;;;;;;;1.43;0.60;;;;;;;15.01;100.00;149810.25;5073472;28;20180;-58
2022/09/20 02:59:27;;;;;;;0.67;0.63;;;;;;;14.84;100.00;149767.13;5073279;28;20242;-60
2022/09/20 03:02:07;;;;;;;0.70;0.70;;;;;;;14.90;100.00;149782.31;5073252;28;20662;-59
2022/09/20 03:04:45;;;;;;;0.90;0.90;;;;;;;14.91;100.00;149786.13;5073258;28;20195;-59
2022/09/20 03:07:25;;;;;;;1.80;0.80;;;;;;;14.68;100.00;149727.81;5073181;28;20208;-59
2022/09/20 03:10:05;;;;;;;0.87;0.80;;;;;;;14.86;100.00;149773.44;5073423;28;20188;-59
2022/09/20 03:12:43;;;;;;;0.70;0.70;;;;;;;14.85;100.00;149770.91;5073352;28;20227;-60
2022/09/20 03:15:21;;;;;;;2.73;0.90;;;;;;;14.79;100.00;149755.72;5073500;28;20283;-59
2022/09/20 03:17:59;;;;;;;0.70;0.70;;;;;;;14.75;100.00;149745.56;5072943;28;20599;-59
2022/09/20 03:20:36;;;;;;;0.87;0.87;;;;;;;14.70;100.00;149732.88;5073601;28;20242;-59
2022/09/20 03:23:14;;;;;;;1.00;1.00;;;;;;;14.66;100.00;149722.72;5073260;28;20196;-59
2022/09/20 03:25:50;;;;;;;0.97;0.97;;;;;;;14.62;100.00;149713.88;5072860;28;20188;-59
2022/09/20 03:28:47;;;;;;;1.80;1.10;;;;;;;14.43;100.00;149664.38;5073184;28;20238;-59
2022/09/20 03:31:27;;;;;;;3.70;1.30;;;;;;;14.60;100.00;149707.50;5066069;28;20307;-59
2022/09/20 03:34:06;;;;;;;1.03;1.03;;;;;;;14.61;100.00;149710.03;5073076;28;20627;-59
2022/09/20 03:36:51;;;;;;;1.97;1.27;;;;;;;14.57;100.00;149699.91;5072927;28;20188;-59
2022/09/20 03:39:33;;;;;;;0.90;0.90;;;;;;;14.61;100.00;149710.03;5072864;28;20189;-60
2022/09/20 03:42:14;;;;;;;1.03;1.03;;;;;;;14.63;100.00;149715.13;5072865;28;20603;-60
2022/09/20 03:45:12;;;;;;;1.03;1.03;;;;;;;14.60;100.00;149708.78;5072457;28;20223;-59
2022/09/20 03:47:56;;;;;;;1.10;1.00;;;;;;;14.50;100.00;149683.44;5072455;28;20209;-60
2022/09/20 03:50:38;;;;;;;1.13;1.03;;;;;;;14.29;100.00;149628.88;5072654;28;20613;-59
2022/09/20 03:53:27;;;;;;;1.60;1.00;;;;;;;14.37;100.00;149649.19;5072286;28;20188;-59
2022/09/20 03:56:43;;;;;;;1.03;1.03;;;;;;;14.30;100.00;149631.41;5072243;28;20193;-59
2022/09/20 03:59:36;;;;;;;2.20;1.17;;;;;;;14.07;100.00;149575.63;5062832;28;20196;-60
2022/09/20 04:02:20;;;;;;;1.47;1.47;;;;;;;14.26;100.00;149621.28;5070567;28;20283;-60
2022/09/20 04:04:53;;;;;;;1.50;1.50;;;;;;;14.37;100.00;149650.47;5072453;28;20185;-59
2022/09/20 04:07:27;;;;;;;1.40;1.40;;;;;;;14.35;100.00;149644.06;5071949;28;20208;-59
2022/09/20 04:10:12;;;;;;;1.50;1.50;;;;;;;14.33;100.00;149640.28;5071971;28;20185;-59
2022/09/20 04:12:53;;;;;;;2.03;1.80;;;;;;;14.41;100.00;149660.59;5072036;28;20180;-59
2022/09/20 04:15:31;;;;;;;1.80;1.70;;;;;;;14.36;100.00;149646.66;5072088;28;20193;-59
2022/09/20 04:18:05;;;;;;;1.70;1.60;;;;;;;14.35;100.00;149644.06;5071850;28;20216;-59
2022/09/20 04:20:38;;;;;;;2.73;2.27;;;;;;;14.34;100.00;149641.56;5071799;28;20258;-59
2022/09/20 04:23:17;;;;;;;2.90;2.57;;;;;;;14.32;100.00;149637.72;5072340;28;20610;-59
2022/09/20 04:25:47;;;;;;;4.40;2.60;;;;;;;14.18;100.00;149603.50;5071955;28;20626;-60
2022/09/20 04:28:24;;;;;;;8.33;3.30;;;;;;;14.17;100.00;149600.94;5071566;28;20204;-59
2022/09/20 04:30:57;;;;;;;11.93;3.43;;;;;;;14.11;100.00;149584.50;5072060;28;20559;-59
2022/09/20 04:33:29;;;;;;;14.20;2.47;;;;;;;14.10;100.00;149583.22;5072119;28;20563;-59
2022/09/20 04:36:27;;;;;;;2.50;2.40;;;;;;;14.07;100.00;149575.63;5071953;28;20195;-47
2022/09/20 04:39:02;;;;;;;2.30;2.20;;;;;;;14.07;100.00;149575.63;5071633;28;20177;-49
2022/09/20 04:42:07;;;;;;;2.50;2.00;;;;;;;14.01;100.00;149560.41;5072005;28;20536;-49
2022/09/20 04:45:33;;;;;;;9.20;1.70;;;;;;;14.11;100.00;149584.50;5033311;28;20243;-59
2022/09/20 04:48:34;;;;;;;11.50;4.00;;;;;;;14.25;100.00;149620.00;4990198;28;20402;-60
2022/09/20 04:51:41;;;;;;;2.00;1.90;;;;;;;14.50;100.00;149682.16;5069012;28;20201;-60
2022/09/20 04:54:37;;;;;;;1.30;1.30;;;;;;;14.69;100.00;149730.31;5071554;28;20184;-59
2022/09/20 04:57:44;;;;;;;1.70;1.60;;;;;;;14.83;100.00;149765.84;5071618;28;20674;-59
2022/09/20 05:00:16;;;;;;;4.10;2.13;;;;;;;14.72;100.00;149737.97;5070694;28;20196;-59
2022/09/20 05:03:15;;;;;;;5.00;1.93;;;;;;;14.68;100.00;149727.81;5071638;28;20268;-60
2022/09/20 05:06:28;;;;;;;2.13;2.03;;;;;;;14.68;100.00;149727.81;5071211;28;20185;-60
2022/09/20 05:09:25;;;;;;;3.10;1.83;;;;;;;14.75;100.00;149744.28;5071585;28;20575;-59
2022/09/20 05:12:08;;;;;;;2.97;2.17;;;;;;;14.69;100.00;149729.06;5070384;28;20633;-59
2022/09/20 05:15:11;;;;;;;1.77;1.67;;;;;;;14.51;100.00;149685.94;5071208;28;20246;-58
2022/09/20 05:17:52;;;;;;;4.47;1.90;;;;;;;14.49;100.00;149679.63;5071192;28;20235;-59
2022/09/20 05:20:46;;;;;;;2.47;1.80;;;;;;;14.47;100.00;149675.78;5071044;28;20184;-60
2022/09/20 05:23:33;;;;;;;8.77;6.67;;;;;;;14.67;100.00;149725.28;5064395;28;20206;-60
2022/09/20 05:26:25;;;;;;;8.43;2.67;;;;;;;14.73;100.00;149740.47;5075018;28;20196;-61
2022/09/20 05:29:00;;;;;;;2.63;1.60;;;;;;;14.69;100.00;149730.31;5075230;28;20204;-60
2022/09/20 05:31:44;;;;;;;3.63;1.77;;;;;;;15.01;100.00;149811.53;5075512;28;20180;-60
2022/09/20 05:34:19;;;;;;;10.70;1.90;;;;;;;15.72;100.00;149989.19;5074870;28;20192;-61
2022/09/20 05:36:57;;;;;;;2.70;1.20;;;;;;;16.30;100.00;150133.88;5074934;28;20185;-60
2022/09/20 05:39:34;;;;;;;2.70;1.50;;;;;;;17.19;100.00;150357.47;5075063;28;20566;-59
2022/09/20 05:42:12;;;;;;;7.03;2.07;;;;;;;18.56;100.00;150703.31;5074537;28;20211;-60
2022/09/20 05:44:54;;;;;;;9.80;7.40;;;;;;;18.98;100.00;150807.63;5073457;28;20275;-60
2022/09/20 05:47:32;;;;;;;3.73;1.17;;;;;;;19.10;100.00;150839.41;5074354;28;20189;-59
2022/09/20 05:50:12;;;;;;;4.70;1.47;;;;;;;18.73;100.00;150745.28;5075050;28;20188;-62
2022/09/20 05:52:50;;;;;;;2.37;1.20;;;;;;;18.62;100.00;150718.59;5074328;28;20196;-60
2022/09/20 05:55:50;;;;;;;2.37;1.23;;;;;;;18.42;100.00;150666.38;5074546;28;20185;-60
2022/09/20 05:58:44;;;;;;;2.73;1.20;;;;;;;18.83;100.00;150769.47;5063865;28;20196;-61
2022/09/20 06:01:17;;;;;;;1.77;1.40;;;;;;;19.04;100.00;150822.91;5073032;28;20188;-60
2022/09/20 06:03:53;;;;;;;1.40;1.30;;;;;;;19.12;100.00;150843.25;5074331;28;20646;-60
2022/09/20 06:06:25;;;;;;;1.10;1.10;;;;;;;19.10;100.00;150839.41;5074499;28;20275;-61
2022/09/20 06:09:12;;;;;;;2.40;1.60;;;;;;;19.27;100.00;150881.41;5073997;28;20235;-61
2022/09/20 06:12:03;;;;;;;1.40;1.23;;;;;;;19.69;100.00;150985.84;5074545;28;20563;-62
2022/09/20 06:14:42;;;;;;;4.27;1.50;;;;;;;19.97;100.00;151057.09;5074523;28;20191;-61
2022/09/20 06:17:20;;;;;;;1.08;1.08;;;;;;;20.19;100.00;151113.13;5074484;28;20284;-60
2022/09/20 06:19:55;;;;;;;3.33;1.10;;;;;;;20.48;100.00;151187.03;5074219;28;20181;-59
2022/09/20 06:22:27;;;;;;;3.05;1.48;;;;;;;20.56;100.00;151206.13;5074484;28;20232;-58
2022/09/20 06:25:02;;;;;;;0.80;0.80;;;;;;;20.59;99.13;151212.47;5074319;28;20188;-60
2022/09/20 06:27:36;;;;;;;1.52;1.42;;;;;;;20.57;100.00;151207.41;5073778;28;20295;-62
2022/09/20 06:30:06;;;;;;;0.98;0.93;;;;;;;20.29;99.19;151137.28;5073971;28;20188;-61
2022/09/20 06:32:34;;;;;;;0.95;0.95;;;;;;;20.17;99.88;151106.75;5073686;28;20199;-60
2022/09/20 06:35:04;;;;;;;1.07;1.07;;;;;;;19.85;100.00;151026.56;5071135;28;20193;-61
2022/09/20 06:43:22;;;;;;;1.63;1.13;;;;;;;19.23;100.00;150871.22;5073834;28;20744;-61
2022/09/20 06:45:49;;;;;;;3.87;1.40;;;;;;;19.22;100.00;150867.44;5073653;28;20627;-60
2022/09/20 06:48:18;;;;;;;2.83;1.40;;;;;;;19.37;100.00;150906.88;5073613;28;20684;-61
2022/09/20 06:50:45;;;;;;;3.60;1.73;;;;;;;19.19;100.00;150861.03;5073861;28;20188;-61
2022/09/20 06:53:23;;;;;;;6.57;2.10;;;;;;;19.21;100.00;150866.16;5073326;28;20275;-60
2022/09/20 06:55:51;;;;;;;2.50;1.50;;;;;;;19.66;100.00;150979.44;5073484;28;20191;-61
2022/09/20 06:58:18;;;;;;;2.33;1.63;;;;;;;19.82;100.00;151020.16;5073019;28;20185;-61
2022/09/20 07:00:47;;;;;;;5.90;1.47;;;;;;;19.94;100.00;151049.47;5073488;28;20582;-61
2022/09/20 07:03:13;;;;;;;9.33;1.40;;;;;;;20.16;100.00;151105.47;5073304;28;20224;-62
2022/09/20 07:05:40;;;;;;;3.80;1.57;;;;;;;20.43;97.66;151173.00;5073080;28;20187;-61
2022/09/20 07:08:07;;;;;;;2.73;1.60;;;;;;;20.49;97.74;151188.31;5073160;28;20571;-61
2022/09/20 07:10:34;;;;;;;1.00;1.00;;;;;;;20.47;95.14;151184.47;5073251;28;20536;-61
2022/09/20 07:13:02;;;;;;;1.20;1.20;;;;;;;20.63;92.25;151223.94;5073232;28;20505;-61
2022/09/20 07:15:33;;;;;;;1.33;1.23;;;;;;;20.68;92.23;151235.41;5072988;28;20184;-61
2022/09/20 07:18:01;;;;;;;1.60;1.50;;;;;;;20.59;91.23;151212.47;5072615;28;20230;-61
2022/09/20 07:20:38;;;;;;;1.83;1.30;;;;;;;20.78;89.77;151260.91;5072629;28;20188;-61
2022/09/20 07:23:05;;;;;;;1.38;1.20;;;;;;;20.83;86.57;151273.66;5072820;28;20196;-60
2022/09/20 07:25:32;;;;;;;1.27;1.27;;;;;;;21.26;85.74;151382.00;5072638;28;20203;-61
2022/09/20 07:27:59;;;;;;;5.57;1.20;;;;;;;21.15;84.75;151353.94;5072879;28;20264;-60
2022/09/20 07:30:26;;;;;;;1.40;1.30;;;;;;;21.41;82.60;151421.50;5072845;28;20188;-60
2022/09/20 07:32:53;;;;;;;3.00;1.15;;;;;;;21.79;82.24;151517.06;5072710;28;20201;-60
2022/09/20 07:35:21;;;;;;;1.98;0.70;;;;;;;21.97;75.10;151561.75;5072835;28;20555;-60
2022/09/20 07:37:48;;;;;;;0.90;0.90;;;;;;;22.12;72.05;151599.97;5072423;28;20188;-60
2022/09/20 07:40:15;;;;;;;0.70;0.70;;;;;;;22.32;71.03;151649.69;5072748;28;20604;-60
2022/09/20 07:42:44;;;;;;;2.22;1.25;;;;;;;22.06;73.71;151584.69;5072249;28;20192;-61
2022/09/20 07:45:12;;;;;;;3.25;1.00;;;;;;;22.57;71.30;151712.22;5072563;28;20195;-61
2022/09/20 07:47:40;;;;;;;2.55;1.20;;;;;;;22.39;72.44;151666.28;5071730;28;20192;-61
2022/09/20 07:50:08;;;;;;;2.85;1.25;;;;;;;22.18;73.88;151614.00;5072560;28;20285;-61
2022/09/20 07:52:37;;;;;;;1.92;1.27;;;;;;;21.91;76.48;151546.38;5072235;28;20242;-61
2022/09/20 07:55:04;;;;;;;1.10;1.10;;;;;;;21.98;76.48;151563.03;5072426;28;20654;-61
2022/09/20 07:57:36;;;;;;;1.67;1.23;;;;;;;21.80;77.23;151518.34;5072134;28;20191;-61
2022/09/20 08:00:04;;;;;;;2.30;1.10;;;;;;;21.19;77.04;151364.13;5072058;28;20206;-61
2022/09/20 08:02:32;;;;;;;1.73;1.63;;;;;;;21.80;77.45;151519.63;5072052;28;20207;-62
2022/09/20 08:05:00;;;;;;;1.95;1.08;;;;;;;21.95;75.09;151555.34;5072031;28;20238;-62
2022/09/20 08:07:27;;;;;;;0.90;0.90;;;;;;;21.57;71.89;151460.97;5072086;28;20191;-60
2022/09/20 08:09:55;;;;;;;5.43;1.55;;;;;;;21.85;70.15;151531.09;5071566;28;20228;-61
2022/09/20 08:12:22;;;;;;;1.15;0.90;;;;;;;21.80;70.44;151518.34;5071003;28;20191;-62
2022/09/20 08:14:52;;;;;;;2.15;0.82;;;;;;;21.78;69.80;151513.22;5071907;28;20191;-62
2022/09/20 08:17:19;;;;;;;0.90;0.90;;;;;;;22.06;68.04;151583.41;5072041;28;20212;-61
2022/09/20 08:19:51;;;;;;;0.90;0.90;;;;;;;21.90;68.41;151542.59;5071867;28;20188;-62
2022/09/20 08:22:19;;;;;;;7.80;1.45;;;;;;;22.13;65.99;151602.53;5072067;28;20716;-61
2022/09/20 08:24:45;;;;;;;1.45;1.02;;;;;;;22.23;66.57;151626.78;5071597;28;20645;-61
2022/09/20 08:27:16;;;;;;;1.73;0.80;;;;;;;22.42;63.60;151673.91;5071773;28;20658;-61
2022/09/20 08:29:43;;;;;;;0.70;0.70;;;;;;;22.70;62.95;151746.66;5071826;28;20689;-60
2022/09/20 08:32:11;;;;;;;0.60;0.60;;;;;;;22.74;63.02;151755.63;5071763;28;20255;-60
2022/09/20 08:34:40;;;;;;;4.32;1.10;;;;;;;22.10;62.08;151594.91;5071759;28;20185;-60
2022/09/20 08:37:07;;;;;;;4.50;1.15;;;;;;;22.17;62.48;151612.72;5071344;28;20195;-60
2022/09/20 08:39:44;;;;;;;1.00;1.00;;;;;;;22.27;63.34;151636.97;5071609;28;20185;-61
2022/09/20 08:42:22;;;;;;;10.75;1.15;;;;;;;22.45;63.35;151681.59;5071604;28;20181;-61
2022/09/20 08:44:53;;;;;;;0.57;0.57;;;;;;;22.31;61.44;151648.44;5072022;28;20187;-61
2022/09/20 08:47:24;;;;;;;1.15;0.80;;;;;;;22.41;61.05;151672.63;5071505;28;20192;-61
2022/09/20 08:49:53;;;;;;;1.48;0.93;;;;;;;22.33;61.19;151652.25;5071215;28;20209;-61
2022/09/20 08:52:32;;;;;;;2.55;0.95;;;;;;;22.40;60.84;151668.84;5069200;28;20185;-61
2022/09/20 08:55:00;;;;;;;2.95;0.80;;;;;;;22.55;60.29;151707.09;5071851;28;20192;-67
2022/09/20 08:57:32;;;;;;;2.55;1.10;;;;;;;22.80;59.89;151770.91;5067156;28;20660;-65
2022/09/20 09:00:00;;;;;;;1.00;1.00;;;;;;;23.35;58.67;151908.69;5072219;28;20562;-66
2022/09/20 09:02:31;;;;;;;1.15;1.05;;;;;;;23.68;57.61;151992.94;5068944;28;20655;-66
2022/09/20 09:04:58;;;;;;;1.85;0.80;;;;;;;24.21;56.89;152125.78;5052916;28;20198;-65
2022/09/20 09:07:27;;;;;;;5.95;1.25;;;;;;;24.68;53.14;152245.81;5070746;28;20192;-66
2022/09/20 09:09:56;;;;;;;2.03;0.70;;;;;;;24.90;51.92;152302.09;5064847;28;20236;-65
2022/09/20 09:12:26;;;;;;;1.08;0.75;;;;;;;25.81;50.34;152530.81;5060023;28;20223;-65
2022/09/20 09:14:59;;;;;;;2.67;1.38;;;;;;;25.86;48.42;152544.88;5068175;28;20205;-65
2022/09/20 09:17:28;;;;;;;2.35;0.95;;;;;;;26.19;47.00;152626.69;5069608;28;20193;-66
2022/09/20 09:19:56;;;;;;;0.93;0.60;;;;;;;26.32;45.48;152659.97;5066602;28;20727;-66
2022/09/20 09:22:34;;;;;;;0.73;0.70;;;;;;;27.31;43.83;152909.41;5060627;28;20670;-65
2022/09/20 09:28:35;;;;;;;0.50;0.50;;;;;;;28.15;38.29;153123.22;4970577;28;20263;-66
2022/09/20 09:31:20;;;;;;;0.43;0.43;;;;;;;28.70;36.55;153261.53;4994253;28;20567;-65
2022/09/20 09:33:47;;;;;;;0.50;0.40;;;;;;;28.69;35.03;153258.91;5070797;28;20196;-66
2022/09/20 09:36:17;;;;;;;1.10;0.45;;;;;;;28.41;35.89;153188.50;5071369;28;20192;-66
2022/09/20 09:38:46;;;;;;;0.40;0.40;;;;;;;28.74;35.46;153271.75;5071629;28;20189;-66
2022/09/20 09:41:25;;;;;;;0.32;0.32;;;;;;;29.13;35.50;153371.66;5071309;28;20216;-66
2022/09/20 09:44:00;;;;;;;0.47;0.47;;;;;;;29.16;35.29;153378.03;5071343;28;20189;-65
2022/09/20 09:46:32;;;;;;;2.47;0.52;;;;;;;29.05;34.78;153351.19;5071240;28;20218;-66
2022/09/20 09:49:08;;;;;;;0.40;0.40;;;;;;;29.36;34.57;153429.38;5071467;28;20671;-66
2022/09/20 09:51:36;;;;;;;0.50;0.50;;;;;;;29.78;34.14;153535.69;5071261;28;20215;-66
2022/09/20 09:54:07;;;;;;;1.35;0.43;;;;;;;29.71;33.88;153517.72;5071479;28;20197;-66
2022/09/20 09:56:47;;;;;;;0.50;0.50;;;;;;;29.62;33.71;153494.72;5070946;28;20220;-65
2022/09/20 09:59:30;;;;;;;3.80;0.70;;;;;;;30.09;33.64;153615.16;5071307;28;20184;-66
2022/09/20 10:02:11;;;;;;;1.48;0.60;;;;;;;29.31;33.84;153417.84;5064258;28;20197;-66
2022/09/20 10:04:47;;;;;;;0.63;0.63;;;;;;;28.46;33.74;153202.59;5051464;28;20235;-66
2022/09/20 10:07:20;;;;;;;5.90;0.50;;;;;;;28.87;34.39;153305.06;5056582;28;20207;-66
2022/09/20 10:10:06;;;;;;;0.70;0.65;;;;;;;29.04;34.04;153348.59;5059323;28;20284;-66
2022/09/20 10:12:50;;;;;;;2.25;0.60;;;;;;;28.98;34.22;153334.50;5054949;28;20274;-65
2022/09/20 10:15:28;;;;;;;0.55;0.40;;;;;;;29.48;32.76;153461.41;5054947;28;20192;-65
2022/09/20 10:18:16;;;;;;;0.40;0.40;;;;;;;29.64;31.87;153499.81;5061404;28;20236;-67
2022/09/20 10:21:03;;;;;;;0.93;0.35;;;;;;;30.49;31.02;153715.19;5074589;28;20657;-65
2022/09/20 10:23:47;;;;;;;1.30;0.50;;;;;;;29.63;32.14;153497.22;5075024;28;20197;-65
2022/09/20 10:26:29;;;;;;;0.50;0.50;;;;;;;29.10;32.01;153364.00;5070277;28;20224;-65
2022/09/20 10:29:06;;;;;;;0.98;0.60;;;;;;;29.09;32.83;153361.41;5065116;28;20201;-65
2022/09/20 10:31:47;;;;;;;0.40;0.40;;;;;;;29.71;32.60;153519.00;5057448;28;20291;-66
2022/09/20 10:34:35;;;;;;;0.40;0.40;;;;;;;29.96;32.04;153580.59;5057680;28;20686;-65
2022/09/20 10:37:02;;;;;;;0.40;0.40;;;;;;;30.48;31.15;153713.91;5058663;28;20595;-64
2022/09/20 10:39:33;;;;;;;8.23;0.60;;;;;;;30.77;30.83;153788.25;5071618;28;20187;-65
2022/09/20 10:45:11;;;;;;;1.15;0.63;;;;;;;30.04;31.85;153601.09;5054337;28;20173;-66
2022/09/20 10:47:49;;;;;;;0.50;0.47;;;;;;;31.41;31.70;153948.59;5054091;28;20200;-64
2022/09/20 10:50:30;;;;;;;2.65;0.60;;;;;;;32.39;30.50;154197.56;5054048;28;20205;-64
2022/09/20 10:53:21;;;;;;;0.32;0.32;;;;;;;32.63;29.37;154257.97;5054072;28;20185;-64
2022/09/20 10:55:59;;;;;;;1.23;0.50;;;;;;;30.27;31.96;153660.03;5054282;28;20280;-65
2022/09/20 10:59:09;;;;;;;0.70;0.70;;;;;;;31.57;31.13;153989.72;5053813;28;20627;-65
2022/09/20 11:01:42;;;;;;;4.78;0.85;;;;;;;29.03;33.14;153347.31;5065917;28;20205;-64
2022/09/20 11:04:45;;;;;;;1.90;1.00;;;;;;;28.24;35.09;153146.25;5073741;28;20197;-64
2022/09/20 11:07:20;;;;;;;1.23;0.50;;;;;;;27.17;36.94;152876.16;5023461;28;20197;-64
2022/09/20 11:09:52;;;;;;;0.65;0.65;;;;;;;26.85;38.26;152794.31;5053535;28;20211;-63
2022/09/20 11:12:26;;;;;;;0.90;0.90;;;;;;;26.40;37.85;152679.13;5053419;28;20221;-63
2022/09/20 11:14:58;;;;;;;1.88;0.73;;;;;;;24.93;39.89;152309.72;5053572;28;20547;-63
2022/09/20 11:17:28;;;;;;;0.68;0.68;;;;;;;24.21;41.09;152127.06;5053511;28;20568;-63
2022/09/20 11:20:00;;;;;;;1.20;0.77;;;;;;;23.97;41.79;152067.03;5053582;28;20307;-63
2022/09/20 11:22:37;;;;;;;1.20;0.60;;;;;;;23.70;42.81;151998.09;5053152;28;20201;-64
2022/09/20 11:25:13;;;;;;;4.38;0.60;;;;;;;23.30;44.00;151895.97;5054057;28;20213;-62
2022/09/20 11:27:44;;;;;;;2.95;0.82;;;;;;;23.17;45.02;151865.28;5066050;28;20199;-63
2022/09/20 11:30:17;;;;;;;0.50;0.50;;;;;;;23.25;46.65;151884.47;5073192;28;20223;-62
2022/09/20 11:32:49;;;;;;;0.82;0.50;;;;;;;23.06;46.04;151835.97;5058215;28;20205;-63
2022/09/20 11:35:25;;;;;;;2.70;0.60;;;;;;;23.03;47.73;151829.59;5060821;28;20200;-63
2022/09/20 11:38:08;;;;;;;2.42;0.60;;;;;;;23.07;45.28;151839.81;5073123;28;20188;-63
2022/09/20 11:40:41;;;;;;;0.95;0.50;;;;;;;22.82;46.63;151774.75;5072788;28;20221;-62
2022/09/20 11:43:11;;;;;;;0.50;0.50;;;;;;;22.78;48.47;151765.81;5072988;28;20184;-62
2022/09/20 11:45:41;;;;;;;0.50;0.50;;;;;;;22.50;48.04;151694.31;5072347;28;20188;-63
2022/09/20 11:48:14;;;;;;;1.60;0.57;;;;;;;22.47;48.21;151687.97;5072776;28;20562;-63
2022/09/20 11:51:01;;;;;;;1.85;0.88;;;;;;;22.75;48.67;151759.41;5066136;28;20209;-63
2022/09/20 11:53:44;;;;;;;1.05;0.70;;;;;;;22.38;48.20;151665.00;5058316;28;20223;-63
2022/09/20 11:56:19;;;;;;;0.75;0.75;;;;;;;22.31;49.66;151648.44;5052239;28;20204;-63
2022/09/20 11:58:56;;;;;;;0.52;0.52;;;;;;;22.08;49.15;151588.50;5063566;28;20686;-63
2022/09/20 12:01:31;;;;;;;2.55;0.90;;;;;;;22.06;49.87;151584.69;5071112;28;20575;-64
2022/09/20 12:04:12;;;;;;;2.88;0.90;;;;;;;22.23;49.97;151628.06;5071833;28;20195;-63
2022/09/20 12:06:42;;;;;;;2.20;0.75;;;;;;;22.19;49.98;151616.56;5071817;28;20231;-62
2022/09/20 12:09:24;;;;;;;1.38;0.57;;;;;;;22.30;48.87;151645.88;5072187;28;20195;-63
2022/09/20 12:11:52;;;;;;;2.63;0.60;;;;;;;22.17;49.13;151611.44;5072030;28;20659;-63
2022/09/20 12:14:22;;;;;;;0.95;0.70;;;;;;;22.35;48.90;151656.09;5071790;28;20189;-63
2022/09/20 12:16:50;;;;;;;0.50;0.50;;;;;;;22.38;49.65;151663.72;5072260;28;20193;-63
2022/09/20 12:19:37;;;;;;;0.73;0.50;;;;;;;22.19;48.47;151617.81;5071891;28;20228;-63
2022/09/20 12:22:28;;;;;;;0.45;0.45;;;;;;;22.23;49.34;151626.78;5063281;28;20642;-64